sensor_id;sensor_type;location;lat;lon;timestamp;P1;durP1;ratioP1;P2;durP2;ratioP2
74213;SDS011;62576;55.694;37.494;2022-12-11T00:01:35;17.33;;;6.97;;
74213;SDS011;62576;55.694;37.494;2022-12-11T00:04:05;13.93;;;6.68;;
74213;SDS011;62576;55.694;37.494;2022-12-11T00:06:34;13.77;;;6.88;;
74213;SDS011;62576;55.694;37.494;2022-12-11T00:09:04;16.73;;;6.85;;
74213;SDS011;62576;55.694;37.494;2022-12-11T00:11:34;16.73;;;6.82;;
74213;SDS011;62576;55.694;37.494;2022-12-11T00:14:04;16.10;;;6.38;;
74213;SDS011;62576;55.694;37.494;2022-12-11T00:16:35;14.32;;;6.15;;
74213;SDS011;62576;55.694;37.494;2022-12-11T00:19:05;15.35;;;6.45;;
74213;SDS011;62576;55.694;37.494;2022-12-11T00:21:36;18.00;;;6.90;;
74213;SDS011;62576;55.694;37.494;2022-12-11T00:24:06;15.07;;;6.20;;
74213;SDS011;62576;55.694;37.494;2022-12-11T00:26:36;18.92;;;7.15;;
74213;SDS011;62576;55.694;37.494;2022-12-11T00:29:06;18.67;;;6.85;;
74213;SDS011;62576;55.694;37.494;2022-12-11T00:31:42;21.15;;;6.78;;
74213;SDS011;62576;55.694;37.494;2022-12-11T00:34:12;15.30;;;6.60;;
74213;SDS011;62576;55.694;37.494;2022-12-11T00:36:42;15.27;;;6.32;;
74213;SDS011;62576;55.694;37.494;2022-12-11T00:39:12;28.27;;;7.78;;
74213;SDS011;62576;55.694;37.494;2022-12-11T00:41:42;40.05;;;8.10;;
74213;SDS011;62576;55.694;37.494;2022-12-11T00:44:13;19.27;;;7.57;;
74213;SDS011;62576;55.694;37.494;2022-12-11T00:46:45;20.95;;;8.00;;
74213;SDS011;62576;55.694;37.494;2022-12-11T00:49:12;67.07;;;8.50;;
74213;SDS011;62576;55.694;37.494;2022-12-11T00:51:42;25.98;;;7.55;;
74213;SDS011;62576;55.694;37.494;2022-12-11T00:54:12;26.08;;;8.40;;
74213;SDS011;62576;55.694;37.494;2022-12-11T00:56:41;24.77;;;8.23;;
74213;SDS011;62576;55.694;37.494;2022-12-11T00:59:11;25.33;;;8.38;;
74213;SDS011;62576;55.694;37.494;2022-12-11T01:01:42;24.13;;;8.25;;
74213;SDS011;62576;55.694;37.494;2022-12-11T01:04:16;23.52;;;7.93;;
74213;SDS011;62576;55.694;37.494;2022-12-11T01:06:46;28.55;;;7.85;;
74213;SDS011;62576;55.694;37.494;2022-12-11T01:09:16;25.50;;;8.25;;
74213;SDS011;62576;55.694;37.494;2022-12-11T01:12:04;19.67;;;7.72;;
74213;SDS011;62576;55.694;37.494;2022-12-11T01:14:34;31.38;;;8.35;;
74213;SDS011;62576;55.694;37.494;2022-12-11T01:17:04;33.65;;;8.38;;
74213;SDS011;62576;55.694;37.494;2022-12-11T01:19:35;47.13;;;8.60;;
74213;SDS011;62576;55.694;37.494;2022-12-11T01:22:05;31.38;;;8.45;;
74213;SDS011;62576;55.694;37.494;2022-12-11T01:24:35;29.30;;;8.43;;
74213;SDS011;62576;55.694;37.494;2022-12-11T01:27:05;29.10;;;8.18;;
74213;SDS011;62576;55.694;37.494;2022-12-11T01:29:35;28.38;;;9.10;;
74213;SDS011;62576;55.694;37.494;2022-12-11T01:32:05;23.08;;;8.63;;
74213;SDS011;62576;55.694;37.494;2022-12-11T01:34:36;25.67;;;8.23;;
74213;SDS011;62576;55.694;37.494;2022-12-11T01:37:06;24.35;;;8.35;;
74213;SDS011;62576;55.694;37.494;2022-12-11T01:39:37;29.63;;;8.35;;
74213;SDS011;62576;55.694;37.494;2022-12-11T01:42:09;22.58;;;8.18;;
74213;SDS011;62576;55.694;37.494;2022-12-11T01:48:01;37.28;;;9.27;;
74213;SDS011;62576;55.694;37.494;2022-12-11T01:50:37;27.02;;;9.73;;
74213;SDS011;62576;55.694;37.494;2022-12-11T01:53:12;28.20;;;8.98;;
74213;SDS011;62576;55.694;37.494;2022-12-11T01:55:47;33.67;;;10.18;;
74213;SDS011;62576;55.694;37.494;2022-12-11T01:58:16;78.13;;;11.63;;
74213;SDS011;62576;55.694;37.494;2022-12-11T02:00:48;50.40;;;11.50;;
74213;SDS011;62576;55.694;37.494;2022-12-11T02:03:19;33.08;;;11.27;;
74213;SDS011;62576;55.694;37.494;2022-12-11T02:05:51;33.97;;;10.45;;
74213;SDS011;62576;55.694;37.494;2022-12-11T02:08:21;32.35;;;10.75;;
74213;SDS011;62576;55.694;37.494;2022-12-11T02:10:55;28.92;;;10.65;;
74213;SDS011;62576;55.694;37.494;2022-12-11T02:13:36;36.17;;;10.57;;
74213;SDS011;62576;55.694;37.494;2022-12-11T02:16:14;33.92;;;9.40;;
74213;SDS011;62576;55.694;37.494;2022-12-11T02:18:50;78.80;;;11.43;;
74213;SDS011;62576;55.694;37.494;2022-12-11T02:21:31;32.33;;;9.90;;
74213;SDS011;62576;55.694;37.494;2022-12-11T02:24:12;33.10;;;9.65;;
74213;SDS011;62576;55.694;37.494;2022-12-11T02:27:00;31.13;;;9.15;;
74213;SDS011;62576;55.694;37.494;2022-12-11T02:29:44;37.45;;;9.52;;
74213;SDS011;62576;55.694;37.494;2022-12-11T02:32:20;30.92;;;9.40;;
74213;SDS011;62576;55.694;37.494;2022-12-11T02:34:56;36.65;;;10.07;;
74213;SDS011;62576;55.694;37.494;2022-12-11T02:37:28;32.83;;;8.60;;
74213;SDS011;62576;55.694;37.494;2022-12-11T02:40:01;61.77;;;9.17;;
74213;SDS011;62576;55.694;37.494;2022-12-11T02:42:36;49.00;;;9.48;;
74213;SDS011;62576;55.694;37.494;2022-12-11T02:45:10;60.10;;;10.13;;
74213;SDS011;62576;55.694;37.494;2022-12-11T02:47:42;45.72;;;9.32;;
74213;SDS011;62576;55.694;37.494;2022-12-11T02:50:16;44.15;;;9.20;;
74213;SDS011;62576;55.694;37.494;2022-12-11T02:52:49;33.42;;;9.32;;
74213;SDS011;62576;55.694;37.494;2022-12-11T02:55:22;56.65;;;9.30;;
74213;SDS011;62576;55.694;37.494;2022-12-11T02:57:56;29.55;;;8.75;;
74213;SDS011;62576;55.694;37.494;2022-12-11T03:00:32;41.47;;;9.38;;
74213;SDS011;62576;55.694;37.494;2022-12-11T03:03:03;54.97;;;10.20;;
74213;SDS011;62576;55.694;37.494;2022-12-11T03:05:33;46.05;;;9.20;;
74213;SDS011;62576;55.694;37.494;2022-12-11T03:08:04;87.38;;;10.18;;
74213;SDS011;62576;55.694;37.494;2022-12-11T03:10:34;57.90;;;9.38;;
74213;SDS011;62576;55.694;37.494;2022-12-11T03:13:04;40.15;;;9.00;;
74213;SDS011;62576;55.694;37.494;2022-12-11T03:15:38;389.67;;;20.08;;
74213;SDS011;62576;55.694;37.494;2022-12-11T03:18:17;35.53;;;8.82;;
74213;SDS011;62576;55.694;37.494;2022-12-11T03:20:56;127.10;;;11.23;;
74213;SDS011;62576;55.694;37.494;2022-12-11T03:23:34;41.35;;;9.05;;
74213;SDS011;62576;55.694;37.494;2022-12-11T03:26:11;33.15;;;8.30;;
74213;SDS011;62576;55.694;37.494;2022-12-11T03:28:44;56.30;;;9.60;;
74213;SDS011;62576;55.694;37.494;2022-12-11T03:31:20;29.95;;;8.25;;
74213;SDS011;62576;55.694;37.494;2022-12-11T03:33:55;32.80;;;8.75;;
74213;SDS011;62576;55.694;37.494;2022-12-11T03:36:30;47.67;;;9.70;;
74213;SDS011;62576;55.694;37.494;2022-12-11T03:39:04;51.88;;;9.27;;
74213;SDS011;62576;55.694;37.494;2022-12-11T03:41:37;355.40;;;24.95;;
74213;SDS011;62576;55.694;37.494;2022-12-11T03:44:09;76.18;;;9.93;;
74213;SDS011;62576;55.694;37.494;2022-12-11T03:46:42;44.15;;;9.80;;
74213;SDS011;62576;55.694;37.494;2022-12-11T03:49:14;45.20;;;9.40;;
74213;SDS011;62576;55.694;37.494;2022-12-11T03:51:47;33.30;;;8.27;;
74213;SDS011;62576;55.694;37.494;2022-12-11T03:54:20;37.83;;;8.38;;
74213;SDS011;62576;55.694;37.494;2022-12-11T03:56:52;142.48;;;11.40;;
74213;SDS011;62576;55.694;37.494;2022-12-11T03:59:25;45.53;;;8.53;;
74213;SDS011;62576;55.694;37.494;2022-12-11T04:01:56;397.25;;;20.92;;
74213;SDS011;62576;55.694;37.494;2022-12-11T04:04:27;29.17;;;7.97;;
74213;SDS011;62576;55.694;37.494;2022-12-11T04:06:56;33.97;;;9.00;;
74213;SDS011;62576;55.694;37.494;2022-12-11T04:09:26;177.05;;;12.50;;
74213;SDS011;62576;55.694;37.494;2022-12-11T04:11:56;118.40;;;11.13;;
74213;SDS011;62576;55.694;37.494;2022-12-11T04:14:26;49.03;;;8.60;;
74213;SDS011;62576;55.694;37.494;2022-12-11T04:17:16;88.88;;;10.27;;
74213;SDS011;62576;55.694;37.494;2022-12-11T04:20:06;112.53;;;10.68;;
74213;SDS011;62576;55.694;37.494;2022-12-11T04:22:54;57.17;;;9.02;;
74213;SDS011;62576;55.694;37.494;2022-12-11T04:25:41;77.35;;;9.80;;
74213;SDS011;62576;55.694;37.494;2022-12-11T04:28:11;41.45;;;9.50;;
74213;SDS011;62576;55.694;37.494;2022-12-11T04:30:46;205.02;;;14.10;;
74213;SDS011;62576;55.694;37.494;2022-12-11T04:33:19;69.68;;;9.90;;
74213;SDS011;62576;55.694;37.494;2022-12-11T04:35:49;40.22;;;9.02;;
74213;SDS011;62576;55.694;37.494;2022-12-11T04:38:16;42.55;;;9.30;;
74213;SDS011;62576;55.694;37.494;2022-12-11T04:40:46;40.38;;;9.07;;
74213;SDS011;62576;55.694;37.494;2022-12-11T04:43:16;410.73;;;26.35;;
74213;SDS011;62576;55.694;37.494;2022-12-11T04:45:46;33.40;;;8.65;;
74213;SDS011;62576;55.694;37.494;2022-12-11T04:48:16;41.92;;;10.18;;
74213;SDS011;62576;55.694;37.494;2022-12-11T04:50:47;37.72;;;9.07;;
74213;SDS011;62576;55.694;37.494;2022-12-11T04:53:17;33.45;;;8.48;;
74213;SDS011;62576;55.694;37.494;2022-12-11T04:55:47;49.50;;;9.02;;
74213;SDS011;62576;55.694;37.494;2022-12-11T04:58:17;36.00;;;9.52;;
74213;SDS011;62576;55.694;37.494;2022-12-11T05:00:47;33.45;;;9.00;;
74213;SDS011;62576;55.694;37.494;2022-12-11T05:03:17;34.17;;;8.95;;
74213;SDS011;62576;55.694;37.494;2022-12-11T05:05:49;29.15;;;8.68;;
74213;SDS011;62576;55.694;37.494;2022-12-11T05:08:20;28.48;;;8.07;;
74213;SDS011;62576;55.694;37.494;2022-12-11T05:10:54;29.83;;;8.93;;
74213;SDS011;62576;55.694;37.494;2022-12-11T05:13:25;36.05;;;9.60;;
74213;SDS011;62576;55.694;37.494;2022-12-11T05:15:56;36.75;;;9.27;;
74213;SDS011;62576;55.694;37.494;2022-12-11T05:18:26;25.73;;;9.25;;
74213;SDS011;62576;55.694;37.494;2022-12-11T05:20:58;34.83;;;8.82;;
74213;SDS011;62576;55.694;37.494;2022-12-11T05:23:29;39.88;;;9.00;;
74213;SDS011;62576;55.694;37.494;2022-12-11T05:26:00;32.17;;;9.18;;
74213;SDS011;62576;55.694;37.494;2022-12-11T05:28:34;29.08;;;9.40;;
74213;SDS011;62576;55.694;37.494;2022-12-11T05:31:06;29.15;;;9.10;;
74213;SDS011;62576;55.694;37.494;2022-12-11T05:33:40;30.42;;;9.05;;
74213;SDS011;62576;55.694;37.494;2022-12-11T05:36:14;28.90;;;8.88;;
74213;SDS011;62576;55.694;37.494;2022-12-11T05:38:47;32.17;;;9.60;;
74213;SDS011;62576;55.694;37.494;2022-12-11T05:41:18;28.20;;;8.90;;
74213;SDS011;62576;55.694;37.494;2022-12-11T05:43:49;35.17;;;9.48;;
74213;SDS011;62576;55.694;37.494;2022-12-11T05:46:20;32.33;;;9.32;;
74213;SDS011;62576;55.694;37.494;2022-12-11T05:48:49;25.63;;;8.75;;
74213;SDS011;62576;55.694;37.494;2022-12-11T05:51:22;33.63;;;9.63;;
74213;SDS011;62576;55.694;37.494;2022-12-11T05:53:53;30.90;;;9.02;;
74213;SDS011;62576;55.694;37.494;2022-12-11T05:56:25;27.75;;;9.05;;
74213;SDS011;62576;55.694;37.494;2022-12-11T05:58:57;37.00;;;10.05;;
74213;SDS011;62576;55.694;37.494;2022-12-11T06:01:28;32.65;;;9.80;;
74213;SDS011;62576;55.694;37.494;2022-12-11T06:04:01;36.67;;;10.55;;
74213;SDS011;62576;55.694;37.494;2022-12-11T06:06:34;31.33;;;9.77;;
74213;SDS011;62576;55.694;37.494;2022-12-11T06:09:04;42.38;;;10.65;;
74213;SDS011;62576;55.694;37.494;2022-12-11T06:11:35;37.30;;;10.80;;
74213;SDS011;62576;55.694;37.494;2022-12-11T06:14:05;27.10;;;8.45;;
74213;SDS011;62576;55.694;37.494;2022-12-11T06:16:35;36.92;;;9.70;;
74213;SDS011;62576;55.694;37.494;2022-12-11T06:19:05;33.10;;;9.95;;
74213;SDS011;62576;55.694;37.494;2022-12-11T06:21:36;29.17;;;9.55;;
74213;SDS011;62576;55.694;37.494;2022-12-11T06:24:06;35.47;;;10.88;;
74213;SDS011;62576;55.694;37.494;2022-12-11T06:26:39;32.15;;;10.25;;
74213;SDS011;62576;55.694;37.494;2022-12-11T06:29:12;33.63;;;10.13;;
74213;SDS011;62576;55.694;37.494;2022-12-11T06:31:42;26.23;;;9.40;;
74213;SDS011;62576;55.694;37.494;2022-12-11T06:34:12;37.22;;;9.70;;
74213;SDS011;62576;55.694;37.494;2022-12-11T06:36:43;34.72;;;9.82;;
74213;SDS011;62576;55.694;37.494;2022-12-11T06:39:14;31.58;;;9.48;;
74213;SDS011;62576;55.694;37.494;2022-12-11T06:41:43;28.08;;;9.48;;
74213;SDS011;62576;55.694;37.494;2022-12-11T06:44:13;28.98;;;9.25;;
74213;SDS011;62576;55.694;37.494;2022-12-11T06:46:43;28.60;;;9.48;;
74213;SDS011;62576;55.694;37.494;2022-12-11T06:49:10;30.35;;;11.38;;
74213;SDS011;62576;55.694;37.494;2022-12-11T06:51:40;27.98;;;9.43;;
74213;SDS011;62576;55.694;37.494;2022-12-11T06:54:12;30.92;;;10.07;;
74213;SDS011;62576;55.694;37.494;2022-12-11T06:56:42;31.40;;;9.48;;
74213;SDS011;62576;55.694;37.494;2022-12-11T06:59:12;33.20;;;10.43;;
74213;SDS011;62576;55.694;37.494;2022-12-11T07:01:41;28.30;;;9.82;;
74213;SDS011;62576;55.694;37.494;2022-12-11T07:04:11;32.03;;;10.10;;
74213;SDS011;62576;55.694;37.494;2022-12-11T07:06:41;28.48;;;9.45;;
74213;SDS011;62576;55.694;37.494;2022-12-11T07:09:13;27.15;;;9.00;;
74213;SDS011;62576;55.694;37.494;2022-12-11T07:11:43;27.77;;;9.30;;
74213;SDS011;62576;55.694;37.494;2022-12-11T07:14:13;27.20;;;9.32;;
74213;SDS011;62576;55.694;37.494;2022-12-11T07:16:44;24.95;;;9.30;;
74213;SDS011;62576;55.694;37.494;2022-12-11T07:19:15;26.65;;;9.50;;
74213;SDS011;62576;55.694;37.494;2022-12-11T07:21:45;24.88;;;8.82;;
74213;SDS011;62576;55.694;37.494;2022-12-11T07:24:16;29.23;;;9.60;;
74213;SDS011;62576;55.694;37.494;2022-12-11T07:26:50;31.83;;;10.60;;
74213;SDS011;62576;55.694;37.494;2022-12-11T07:29:19;32.92;;;10.50;;
74213;SDS011;62576;55.694;37.494;2022-12-11T07:31:50;26.83;;;9.88;;
74213;SDS011;62576;55.694;37.494;2022-12-11T07:34:19;32.92;;;10.77;;
74213;SDS011;62576;55.694;37.494;2022-12-11T07:36:51;26.52;;;10.32;;
74213;SDS011;62576;55.694;37.494;2022-12-11T07:39:23;31.98;;;11.07;;
74213;SDS011;62576;55.694;37.494;2022-12-11T07:41:53;32.28;;;10.75;;
74213;SDS011;62576;55.694;37.494;2022-12-11T07:44:22;38.05;;;11.63;;
74213;SDS011;62576;55.694;37.494;2022-12-11T07:46:55;33.75;;;11.73;;
74213;SDS011;62576;55.694;37.494;2022-12-11T07:49:23;35.15;;;12.13;;
74213;SDS011;62576;55.694;37.494;2022-12-11T07:51:53;37.40;;;12.40;;
74213;SDS011;62576;55.694;37.494;2022-12-11T07:54:24;34.83;;;12.70;;
74213;SDS011;62576;55.694;37.494;2022-12-11T07:56:54;35.78;;;12.13;;
74213;SDS011;62576;55.694;37.494;2022-12-11T07:59:24;32.28;;;12.65;;
74213;SDS011;62576;55.694;37.494;2022-12-11T08:01:54;34.83;;;13.30;;
74213;SDS011;62576;55.694;37.494;2022-12-11T08:04:24;36.92;;;13.25;;
74213;SDS011;62576;55.694;37.494;2022-12-11T08:06:56;33.00;;;12.77;;
74213;SDS011;62576;55.694;37.494;2022-12-11T08:09:27;33.95;;;12.63;;
74213;SDS011;62576;55.694;37.494;2022-12-11T08:11:57;34.53;;;13.48;;
74213;SDS011;62576;55.694;37.494;2022-12-11T08:14:27;35.67;;;12.65;;
74213;SDS011;62576;55.694;37.494;2022-12-11T08:16:57;36.30;;;12.57;;
74213;SDS011;62576;55.694;37.494;2022-12-11T08:19:29;30.63;;;11.68;;
74213;SDS011;62576;55.694;37.494;2022-12-11T08:21:59;35.38;;;12.88;;
74213;SDS011;62576;55.694;37.494;2022-12-11T08:24:30;33.08;;;11.55;;
74213;SDS011;62576;55.694;37.494;2022-12-11T08:27:00;30.27;;;12.18;;
74213;SDS011;62576;55.694;37.494;2022-12-11T08:29:30;29.85;;;12.13;;
74213;SDS011;62576;55.694;37.494;2022-12-11T08:32:03;31.50;;;11.65;;
74213;SDS011;62576;55.694;37.494;2022-12-11T08:34:34;32.55;;;12.75;;
74213;SDS011;62576;55.694;37.494;2022-12-11T08:37:03;29.42;;;12.10;;
74213;SDS011;62576;55.694;37.494;2022-12-11T08:39:35;30.38;;;12.75;;
74213;SDS011;62576;55.694;37.494;2022-12-11T08:42:05;39.38;;;12.98;;
74213;SDS011;62576;55.694;37.494;2022-12-11T08:44:35;37.15;;;13.43;;
74213;SDS011;62576;55.694;37.494;2022-12-11T08:47:05;35.97;;;13.45;;
74213;SDS011;62576;55.694;37.494;2022-12-11T08:49:34;34.78;;;13.10;;
74213;SDS011;62576;55.694;37.494;2022-12-11T08:52:04;37.47;;;14.38;;
74213;SDS011;62576;55.694;37.494;2022-12-11T08:54:36;33.58;;;13.40;;
74213;SDS011;62576;55.694;37.494;2022-12-11T08:57:06;34.08;;;13.02;;
74213;SDS011;62576;55.694;37.494;2022-12-11T08:59:36;33.53;;;12.48;;
74213;SDS011;62576;55.694;37.494;2022-12-11T09:02:06;33.47;;;12.88;;
74213;SDS011;62576;55.694;37.494;2022-12-11T09:04:39;37.03;;;12.50;;
74213;SDS011;62576;55.694;37.494;2022-12-11T09:07:09;35.63;;;12.85;;
74213;SDS011;62576;55.694;37.494;2022-12-11T09:09:40;38.50;;;13.60;;
74213;SDS011;62576;55.694;37.494;2022-12-11T09:12:11;38.70;;;13.35;;
74213;SDS011;62576;55.694;37.494;2022-12-11T09:14:41;36.55;;;13.02;;
74213;SDS011;62576;55.694;37.494;2022-12-11T09:17:11;34.35;;;12.57;;
74213;SDS011;62576;55.694;37.494;2022-12-11T09:19:41;37.45;;;12.98;;
74213;SDS011;62576;55.694;37.494;2022-12-11T09:22:11;32.15;;;11.95;;
74213;SDS011;62576;55.694;37.494;2022-12-11T09:24:42;31.48;;;12.25;;
74213;SDS011;62576;55.694;37.494;2022-12-11T09:27:13;30.30;;;12.75;;
74213;SDS011;62576;55.694;37.494;2022-12-11T09:29:43;32.28;;;12.55;;
74213;SDS011;62576;55.694;37.494;2022-12-11T09:32:13;34.63;;;12.98;;
74213;SDS011;62576;55.694;37.494;2022-12-11T09:34:43;36.15;;;12.25;;
74213;SDS011;62576;55.694;37.494;2022-12-11T09:37:13;29.23;;;12.23;;
74213;SDS011;62576;55.694;37.494;2022-12-11T09:39:44;44.70;;;13.63;;
74213;SDS011;62576;55.694;37.494;2022-12-11T09:42:15;33.70;;;12.38;;
74213;SDS011;62576;55.694;37.494;2022-12-11T09:44:51;31.48;;;11.90;;
74213;SDS011;62576;55.694;37.494;2022-12-11T09:47:24;29.95;;;11.95;;
74213;SDS011;62576;55.694;37.494;2022-12-11T09:50:02;35.65;;;12.82;;
74213;SDS011;62576;55.694;37.494;2022-12-11T09:52:42;31.35;;;12.52;;
74213;SDS011;62576;55.694;37.494;2022-12-11T09:55:24;32.13;;;12.98;;
74213;SDS011;62576;55.694;37.494;2022-12-11T09:57:58;34.38;;;12.63;;
74213;SDS011;62576;55.694;37.494;2022-12-11T10:00:36;37.20;;;12.52;;
74213;SDS011;62576;55.694;37.494;2022-12-11T10:03:18;28.92;;;11.50;;
74213;SDS011;62576;55.694;37.494;2022-12-11T10:06:06;31.52;;;11.88;;
74213;SDS011;62576;55.694;37.494;2022-12-11T10:08:44;31.67;;;12.30;;
74213;SDS011;62576;55.694;37.494;2022-12-11T10:11:28;35.25;;;12.75;;
74213;SDS011;62576;55.694;37.494;2022-12-11T10:14:16;32.63;;;11.63;;
74213;SDS011;62576;55.694;37.494;2022-12-11T10:16:56;29.20;;;11.82;;
74213;SDS011;62576;55.694;37.494;2022-12-11T10:19:30;29.92;;;12.15;;
74213;SDS011;62576;55.694;37.494;2022-12-11T10:22:01;28.83;;;11.60;;
74213;SDS011;62576;55.694;37.494;2022-12-11T10:24:33;34.50;;;12.85;;
74213;SDS011;62576;55.694;37.494;2022-12-11T10:27:14;35.00;;;12.65;;
74213;SDS011;62576;55.694;37.494;2022-12-11T10:29:54;30.45;;;11.88;;
74213;SDS011;62576;55.694;37.494;2022-12-11T10:32:32;30.67;;;11.90;;
74213;SDS011;62576;55.694;37.494;2022-12-11T10:35:16;31.05;;;11.98;;
74213;SDS011;62576;55.694;37.494;2022-12-11T10:37:48;32.35;;;11.68;;
74213;SDS011;62576;55.694;37.494;2022-12-11T10:40:19;34.17;;;12.02;;
74213;SDS011;62576;55.694;37.494;2022-12-11T10:42:55;29.60;;;12.95;;
74213;SDS011;62576;55.694;37.494;2022-12-11T10:45:24;35.97;;;13.52;;
74213;SDS011;62576;55.694;37.494;2022-12-11T10:50:40;33.00;;;12.32;;
74213;SDS011;62576;55.694;37.494;2022-12-11T10:55:48;29.35;;;11.40;;
74213;SDS011;62576;55.694;37.494;2022-12-11T10:58:21;31.63;;;11.80;;
74213;SDS011;62576;55.694;37.494;2022-12-11T11:00:59;29.70;;;11.85;;
74213;SDS011;62576;55.694;37.494;2022-12-11T11:03:38;30.55;;;11.73;;
74213;SDS011;62576;55.694;37.494;2022-12-11T11:06:23;31.52;;;11.70;;
74213;SDS011;62576;55.694;37.494;2022-12-11T11:08:55;30.25;;;11.18;;
74213;SDS011;62576;55.694;37.494;2022-12-11T11:11:28;30.95;;;12.00;;
74213;SDS011;62576;55.694;37.494;2022-12-11T11:14:11;30.40;;;11.52;;
74213;SDS011;62576;55.694;37.494;2022-12-11T11:16:43;33.92;;;11.73;;
74213;SDS011;62576;55.694;37.494;2022-12-11T11:19:17;30.10;;;11.55;;
74213;SDS011;62576;55.694;37.494;2022-12-11T11:21:50;34.90;;;13.35;;
74213;SDS011;62576;55.694;37.494;2022-12-11T11:24:23;34.75;;;12.63;;
74213;SDS011;62576;55.694;37.494;2022-12-11T11:26:57;30.45;;;11.50;;
74213;SDS011;62576;55.694;37.494;2022-12-11T11:29:30;34.70;;;12.15;;
74213;SDS011;62576;55.694;37.494;2022-12-11T11:32:12;34.70;;;11.55;;
74213;SDS011;62576;55.694;37.494;2022-12-11T11:34:45;31.13;;;11.93;;
74213;SDS011;62576;55.694;37.494;2022-12-11T11:37:21;29.40;;;11.23;;
74213;SDS011;62576;55.694;37.494;2022-12-11T11:39:54;29.75;;;11.40;;
74213;SDS011;62576;55.694;37.494;2022-12-11T11:42:35;39.75;;;11.43;;
74213;SDS011;62576;55.694;37.494;2022-12-11T11:45:13;34.53;;;11.45;;
74213;SDS011;62576;55.694;37.494;2022-12-11T11:47:48;35.33;;;11.32;;
74213;SDS011;62576;55.694;37.494;2022-12-11T11:50:25;32.67;;;12.23;;
74213;SDS011;62576;55.694;37.494;2022-12-11T11:53:02;32.05;;;11.50;;
74213;SDS011;62576;55.694;37.494;2022-12-11T11:55:40;31.40;;;11.32;;
74213;SDS011;62576;55.694;37.494;2022-12-11T11:58:18;27.73;;;10.23;;
74213;SDS011;62576;55.694;37.494;2022-12-11T12:00:53;29.23;;;11.05;;
74213;SDS011;62576;55.694;37.494;2022-12-11T12:03:23;31.80;;;10.88;;
74213;SDS011;62576;55.694;37.494;2022-12-11T12:05:55;27.67;;;11.02;;
74213;SDS011;62576;55.694;37.494;2022-12-11T12:08:36;27.15;;;10.27;;
74213;SDS011;62576;55.694;37.494;2022-12-11T12:11:16;29.92;;;10.27;;
74213;SDS011;62576;55.694;37.494;2022-12-11T12:13:56;27.52;;;10.48;;
74213;SDS011;62576;55.694;37.494;2022-12-11T12:16:36;23.85;;;9.95;;
74213;SDS011;62576;55.694;37.494;2022-12-11T12:19:14;24.92;;;10.13;;
74213;SDS011;62576;55.694;37.494;2022-12-11T12:21:53;22.30;;;8.57;;
74213;SDS011;62576;55.694;37.494;2022-12-11T12:24:27;27.63;;;9.85;;
74213;SDS011;62576;55.694;37.494;2022-12-11T12:27:05;23.35;;;9.48;;
74213;SDS011;62576;55.694;37.494;2022-12-11T12:29:43;21.30;;;8.63;;
74213;SDS011;62576;55.694;37.494;2022-12-11T12:32:24;24.00;;;8.80;;
74213;SDS011;62576;55.694;37.494;2022-12-11T12:35:03;20.45;;;8.52;;
74213;SDS011;62576;55.694;37.494;2022-12-11T12:37:46;21.08;;;8.38;;
74213;SDS011;62576;55.694;37.494;2022-12-11T12:40:29;18.03;;;7.87;;
74213;SDS011;62576;55.694;37.494;2022-12-11T12:43:05;19.75;;;8.07;;
74213;SDS011;62576;55.694;37.494;2022-12-11T12:45:48;17.83;;;7.32;;
74213;SDS011;62576;55.694;37.494;2022-12-11T12:48:30;16.02;;;6.80;;
74213;SDS011;62576;55.694;37.494;2022-12-11T12:51:01;16.88;;;7.90;;
74213;SDS011;62576;55.694;37.494;2022-12-11T12:53:33;13.50;;;6.13;;
74213;SDS011;62576;55.694;37.494;2022-12-11T12:56:05;19.38;;;7.82;;
74213;SDS011;62576;55.694;37.494;2022-12-11T12:58:40;15.35;;;6.78;;
74213;SDS011;62576;55.694;37.494;2022-12-11T13:01:14;15.15;;;6.80;;
74213;SDS011;62576;55.694;37.494;2022-12-11T13:03:52;16.58;;;7.20;;
74213;SDS011;62576;55.694;37.494;2022-12-11T13:06:32;17.80;;;7.43;;
74213;SDS011;62576;55.694;37.494;2022-12-11T13:09:09;17.63;;;7.00;;
74213;SDS011;62576;55.694;37.494;2022-12-11T13:11:43;16.52;;;6.38;;
74213;SDS011;62576;55.694;37.494;2022-12-11T13:17:05;13.20;;;5.65;;
74213;SDS011;62576;55.694;37.494;2022-12-11T13:20:05;13.18;;;5.78;;
74213;SDS011;62576;55.694;37.494;2022-12-11T13:28:26;13.73;;;5.28;;
74213;SDS011;62576;55.694;37.494;2022-12-11T13:31:00;12.07;;;5.28;;
74213;SDS011;62576;55.694;37.494;2022-12-11T13:33:37;14.20;;;5.65;;
74213;SDS011;62576;55.694;37.494;2022-12-11T13:39:02;12.45;;;5.93;;
74213;SDS011;62576;55.694;37.494;2022-12-11T13:41:34;11.43;;;5.03;;
74213;SDS011;62576;55.694;37.494;2022-12-11T13:44:06;15.15;;;5.82;;
74213;SDS011;62576;55.694;37.494;2022-12-11T13:46:44;13.93;;;6.05;;
74213;SDS011;62576;55.694;37.494;2022-12-11T13:49:17;16.40;;;6.40;;
74213;SDS011;62576;55.694;37.494;2022-12-11T13:51:52;13.10;;;6.15;;
74213;SDS011;62576;55.694;37.494;2022-12-11T13:54:24;15.50;;;6.20;;
74213;SDS011;62576;55.694;37.494;2022-12-11T13:56:56;15.43;;;6.22;;
74213;SDS011;62576;55.694;37.494;2022-12-11T13:59:30;12.35;;;5.80;;
74213;SDS011;62576;55.694;37.494;2022-12-11T14:02:03;12.32;;;5.63;;
74213;SDS011;62576;55.694;37.494;2022-12-11T14:04:38;13.90;;;5.82;;
74213;SDS011;62576;55.694;37.494;2022-12-11T14:07:10;14.98;;;6.53;;
74213;SDS011;62576;55.694;37.494;2022-12-11T14:09:41;13.05;;;5.70;;
74213;SDS011;62576;55.694;37.494;2022-12-11T14:12:17;14.75;;;6.15;;
74213;SDS011;62576;55.694;37.494;2022-12-11T14:14:50;14.38;;;5.47;;
74213;SDS011;62576;55.694;37.494;2022-12-11T14:19:55;11.05;;;5.07;;
74213;SDS011;62576;55.694;37.494;2022-12-11T14:22:29;12.48;;;5.22;;
74213;SDS011;62576;55.694;37.494;2022-12-11T14:25:00;13.05;;;5.43;;
74213;SDS011;62576;55.694;37.494;2022-12-11T14:27:48;11.55;;;4.93;;
74213;SDS011;62576;55.694;37.494;2022-12-11T14:30:20;12.57;;;5.63;;
74213;SDS011;62576;55.694;37.494;2022-12-11T14:32:52;13.73;;;5.70;;
74213;SDS011;62576;55.694;37.494;2022-12-11T14:35:27;13.07;;;5.18;;
74213;SDS011;62576;55.694;37.494;2022-12-11T14:38:03;13.60;;;4.50;;
74213;SDS011;62576;55.694;37.494;2022-12-11T14:40:40;11.35;;;4.85;;
74213;SDS011;62576;55.694;37.494;2022-12-11T14:43:14;13.13;;;5.38;;
74213;SDS011;62576;55.694;37.494;2022-12-11T14:45:52;14.43;;;4.90;;
74213;SDS011;62576;55.694;37.494;2022-12-11T14:48:27;11.70;;;5.07;;
74213;SDS011;62576;55.694;37.494;2022-12-11T14:51:02;12.40;;;5.20;;
74213;SDS011;62576;55.694;37.494;2022-12-11T14:53:39;16.08;;;5.20;;
74213;SDS011;62576;55.694;37.494;2022-12-11T14:56:15;11.48;;;5.15;;
74213;SDS011;62576;55.694;37.494;2022-12-11T14:58:49;11.68;;;5.30;;
74213;SDS011;62576;55.694;37.494;2022-12-11T15:01:24;16.27;;;6.50;;
74213;SDS011;62576;55.694;37.494;2022-12-11T15:06:52;13.07;;;5.20;;
74213;SDS011;62576;55.694;37.494;2022-12-11T15:09:26;12.85;;;5.47;;
74213;SDS011;62576;55.694;37.494;2022-12-11T15:11:58;11.68;;;4.85;;
74213;SDS011;62576;55.694;37.494;2022-12-11T15:14:40;14.27;;;5.72;;
74213;SDS011;62576;55.694;37.494;2022-12-11T15:17:15;11.27;;;4.35;;